Time;durP1;ratioP1;P1;durP2;ratioP2;P2;SDS_P1;SDS_P2;PMS_P1;PMS_P2;Temp;Humidity;BMP_temperature;BMP_pressure;BME280_temperature;BME280_humidity;BME280_pressure;Samples;Min_cycle;Max_cycle;Signal;HPM_P1;HPM_P2
2023/08/28 00:02:20;;;;;;;4.43;2.40;;;14.50;40.20;;;;;;5120698;28;20413;-70
2023/08/28 00:04:46;;;;;;;3.10;1.60;;;14.50;40.20;;;;;;5120284;28;20747;-70
2023/08/28 00:07:12;;;;;;;2.97;1.77;;;14.50;41.90;;;;;;5101727;28;20176;-70
2023/08/28 00:09:38;;;;;;;4.37;2.03;;;14.50;41.40;;;;;;5120175;28;20512;-70
2023/08/28 00:12:04;;;;;;;4.40;2.33;;;14.50;40.00;;;;;;5119860;28;20442;-71
2023/08/28 00:14:30;;;;;;;3.17;2.50;;;14.40;41.00;;;;;;5119516;28;20402;-71
2023/08/28 00:16:56;;;;;;;3.30;1.97;;;14.40;40.60;;;;;;5119516;28;20440;-71
2023/08/28 00:19:21;;;;;;;3.40;1.83;;;14.40;41.30;;;;;;5119165;28;20402;-70
2023/08/28 00:21:47;;;;;;;3.03;1.93;;;14.30;40.90;;;;;;5118811;28;20203;-70
2023/08/28 00:24:12;;;;;;;6.50;1.90;;;14.30;40.60;;;;;;5119283;28;20185;-70
2023/08/28 00:26:38;;;;;;;3.03;1.80;;;14.30;40.50;;;;;;5119152;28;20204;-70
2023/08/28 00:29:03;;;;;;;5.00;2.27;;;14.20;41.40;;;;;;5119145;28;20187;-70
2023/08/28 00:31:29;;;;;;;4.60;2.03;;;14.20;42.00;;;;;;5118967;28;20203;-70
2023/08/28 00:33:55;;;;;;;2.90;2.13;;;14.20;41.90;;;;;;5119113;28;20176;-70
2023/08/28 00:36:21;;;;;;;2.33;1.30;;;14.20;43.90;;;;;;5118988;28;20177;-70
2023/08/28 00:38:46;;;;;;;2.90;1.97;;;14.20;43.00;;;;;;5119064;28;20544;-70
2023/08/28 00:41:12;;;;;;;7.27;1.90;;;14.20;43.20;;;;;;5118854;28;20565;-70
2023/08/28 00:43:38;;;;;;;3.00;1.97;;;14.20;43.60;;;;;;5119149;28;20556;-70
2023/08/28 00:46:04;;;;;;;2.40;2.03;;;14.30;43.50;;;;;;5101357;28;20512;-70
2023/08/28 00:48:30;;;;;;;2.57;1.27;;;14.30;41.80;;;;;;5119587;28;20206;-70
2023/08/28 00:50:57;;;;;;;2.80;1.63;;;14.30;41.10;;;;;;5119570;28;20468;-70
2023/08/28 00:53:23;;;;;;;6.23;2.17;;;14.30;43.00;;;;;;5119574;28;20540;-70
2023/08/28 00:55:49;;;;;;;2.90;2.30;;;14.30;42.80;;;;;;5119376;28;20443;-70
2023/08/28 00:58:16;;;;;;;2.80;1.50;;;14.30;41.60;;;;;;5119383;28;20511;-70
2023/08/28 01:00:42;;;;;;;3.60;1.90;;;14.30;40.80;;;;;;5119123;28;20429;-71
2023/08/28 01:03:07;;;;;;;2.03;1.30;;;14.30;40.80;;;;;;5118592;28;20417;-70
2023/08/28 01:05:36;;;;;;;2.77;1.60;;;14.40;41.90;;;;;;5118818;28;20466;-70
2023/08/28 01:08:19;;;;;;;4.27;1.93;;;14.40;41.50;;;;;;5116306;28;20173;-71
2023/08/28 01:10:51;;;;;;;2.70;1.60;;;14.40;43.70;;;;;;5097207;28;20430;-71
2023/08/28 01:13:36;;;;;;;2.33;1.30;;;14.40;43.20;;;;;;5115312;28;20457;-70
2023/08/28 01:16:02;;;;;;;2.20;1.47;;;14.40;42.70;;;;;;5115617;28;20410;-70
2023/08/28 01:18:28;;;;;;;2.67;1.90;;;14.40;42.90;;;;;;5115600;28;20501;-70
2023/08/28 01:20:54;;;;;;;4.17;1.60;;;14.40;42.90;;;;;;5115435;28;20503;-71
2023/08/28 01:23:43;;;;;;;4.07;2.13;;;14.40;41.30;;;;;;5114851;28;20173;-70
2023/08/28 01:26:08;;;;;;;2.20;1.40;;;14.40;40.80;;;;;;5115330;28;20407;-71
2023/08/28 01:28:34;;;;;;;4.37;1.93;;;14.40;40.10;;;;;;5114888;28;20414;-70
2023/08/28 01:31:04;;;;;;;4.67;2.13;;;14.40;39.00;;;;;;5115047;28;20199;-71
2023/08/28 01:33:30;;;;;;;3.30;1.80;;;14.40;39.40;;;;;;5114531;28;20258;-70
2023/08/28 01:36:09;;;;;;;2.93;1.83;;;14.40;39.30;;;;;;5114811;28;20442;-70
2023/08/28 01:38:41;;;;;;;2.47;1.67;;;14.40;39.00;;;;;;5114897;28;20416;-70
2023/08/28 01:41:11;;;;;;;6.23;1.73;;;14.40;39.40;;;;;;5114647;28;20927;-70
2023/08/28 01:43:46;;;;;;;2.40;1.80;;;14.40;40.10;;;;;;5114446;28;20452;-70
2023/08/28 01:46:12;;;;;;;4.00;1.87;;;14.40;40.10;;;;;;5114752;28;20407;-70
2023/08/28 01:48:44;;;;;;;3.00;1.60;;;14.40;41.20;;;;;;5114637;28;20467;-70
2023/08/28 01:51:10;;;;;;;2.70;1.50;;;14.40;43.50;;;;;;5116134;22;20495;-69
2023/08/28 01:53:36;;;;;;;2.50;1.80;;;14.40;42.90;;;;;;5073577;28;20463;-69
2023/08/28 01:56:07;;;;;;;3.40;2.63;;;14.30;42.20;;;;;;5073876;28;20227;-69
2023/08/28 01:58:36;;;;;;;4.43;1.70;;;14.30;41.60;;;;;;5073736;28;20668;-69
2023/08/28 02:01:01;;;;;;;3.80;1.73;;;14.30;41.40;;;;;;5073578;28;20428;-69
2023/08/28 02:03:29;;;;;;;3.20;2.40;;;14.30;40.60;;;;;;5073298;28;20422;-69
2023/08/28 02:05:55;;;;;;;4.10;1.80;;;14.40;42.50;;;;;;5074015;28;20186;-69
2023/08/28 02:08:21;;;;;;;5.03;1.77;;;14.40;40.50;;;;;;5073599;28;20913;-69
2023/08/28 02:10:46;;;;;;;3.07;1.73;;;14.40;40.50;;;;;;5073374;28;20677;-69
2023/08/28 02:13:12;;;;;;;3.20;2.03;;;14.30;40.00;;;;;;5073093;28;20198;-69
2023/08/28 02:15:38;;;;;;;2.90;1.53;;;14.30;40.00;;;;;;5073388;28;20174;-69
2023/08/28 02:18:03;;;;;;;6.93;1.97;;;14.20;41.00;;;;;;5073284;28;20265;-69
2023/08/28 02:20:29;;;;;;;3.17;2.13;;;14.20;41.80;;;;;;5073052;28;20511;-69
2023/08/28 02:22:55;;;;;;;2.80;2.10;;;14.20;40.90;;;;;;5073030;28;20604;-69
2023/08/28 02:25:23;;;;;;;4.20;1.90;;;14.20;42.00;;;;;;5073154;28;20479;-69
2023/08/28 02:27:49;;;;;;;2.63;1.90;;;14.20;42.70;;;;;;5073423;28;20169;-69
2023/08/28 02:30:15;;;;;;;2.60;1.67;;;14.20;44.80;;;;;;5073280;28;20447;-69
2023/08/28 02:32:41;;;;;;;2.50;1.80;;;14.20;44.40;;;;;;5071401;28;20464;-69
2023/08/28 02:35:08;;;;;;;2.23;1.60;;;14.20;44.40;;;;;;5073023;28;20411;-69
2023/08/28 02:37:33;;;;;;;3.03;2.20;;;14.30;44.40;;;;;;5072968;28;20404;-69
2023/08/28 02:39:59;;;;;;;4.10;2.50;;;14.20;44.10;;;;;;5071439;28;20993;-69
2023/08/28 02:42:25;;;;;;;3.10;2.00;;;14.20;44.80;;;;;;5072615;28;20174;-69
2023/08/28 02:44:50;;;;;;;3.30;2.27;;;14.30;45.10;;;;;;5072852;28;20174;-69
2023/08/28 02:47:16;;;;;;;5.30;2.10;;;14.30;43.60;;;;;;5072772;28;20174;-69
2023/08/28 02:49:42;;;;;;;6.03;1.83;;;14.40;43.30;;;;;;5072804;28;20177;-69
2023/08/28 02:52:07;;;;;;;2.37;1.83;;;14.30;42.60;;;;;;5072361;28;20240;-69
2023/08/28 02:54:33;;;;;;;3.73;2.53;;;14.30;42.50;;;;;;5071332;28;20268;-69
2023/08/28 02:56:59;;;;;;;4.33;1.90;;;14.30;42.30;;;;;;5072477;28;20181;-69
2023/08/28 02:59:25;;;;;;;4.47;2.67;;;14.30;41.20;;;;;;5072691;28;20174;-69
2023/08/28 03:01:50;;;;;;;2.60;1.70;;;14.30;40.00;;;;;;5072114;28;20994;-69
2023/08/28 03:04:16;;;;;;;2.77;2.03;;;14.30;40.80;;;;;;5072400;28;20204;-69
2023/08/28 03:06:42;;;;;;;2.63;2.17;;;14.30;40.80;;;;;;5072412;28;20181;-69
2023/08/28 03:09:08;;;;;;;3.10;1.90;;;14.30;41.60;;;;;;5072435;28;20774;-69
2023/08/28 03:11:34;;;;;;;2.43;1.80;;;14.30;41.90;;;;;;5072026;28;20690;-69
2023/08/28 03:14:00;;;;;;;3.07;2.07;;;14.30;41.40;;;;;;5072397;28;20166;-69
2023/08/28 03:16:25;;;;;;;3.50;2.37;;;14.30;42.60;;;;;;5071031;28;20408;-69
2023/08/28 03:18:51;;;;;;;3.70;2.53;;;14.30;42.00;;;;;;5070874;28;20228;-69
2023/08/28 03:21:17;;;;;;;3.10;2.20;;;14.30;41.50;;;;;;5072087;28;20193;-69
2023/08/28 03:23:42;;;;;;;6.63;2.13;;;14.30;41.00;;;;;;5071927;28;20189;-69
2023/08/28 03:26:08;;;;;;;4.10;2.00;;;14.30;41.90;;;;;;5072106;28;20182;-69
2023/08/28 03:28:33;;;;;;;5.10;1.80;;;14.20;42.00;;;;;;5072086;28;20170;-69
2023/08/28 03:31:00;;;;;;;3.57;2.37;;;14.20;43.60;;;;;;5071533;28;20197;-69
2023/08/28 03:33:26;;;;;;;2.60;1.73;;;14.20;43.20;;;;;;5071674;28;20800;-69
2023/08/28 03:35:51;;;;;;;3.47;1.43;;;14.20;42.90;;;;;;5070881;28;20781;-69
2023/08/28 03:38:18;;;;;;;2.50;1.77;;;14.20;44.10;;;;;;5072475;28;20404;-69
2023/08/28 03:40:44;;;;;;;4.93;2.17;;;14.20;45.00;;;;;;5071829;28;20287;-69
2023/08/28 03:43:11;;;;;;;2.07;1.57;;;14.20;45.80;;;;;;5071693;28;20404;-69
2023/08/28 03:45:36;;;;;;;3.83;2.23;;;14.20;44.50;;;;;;5072166;28;20439;-69
2023/08/28 03:48:02;;;;;;;2.77;2.00;;;14.20;43.50;;;;;;5072194;28;20803;-69
2023/08/28 03:50:30;;;;;;;6.47;2.30;;;14.20;43.70;;;;;;5070400;28;20517;-69
2023/08/28 03:52:59;;;;;;;2.83;1.80;;;14.20;44.10;;;;;;5071569;28;20198;-69
2023/08/28 03:55:27;;;;;;;3.23;2.47;;;14.20;42.60;;;;;;5071815;28;20413;-69
2023/08/28 03:57:53;;;;;;;2.30;1.80;;;14.30;42.20;;;;;;5071786;28;20776;-69
2023/08/28 04:00:19;;;;;;;2.30;1.73;;;14.20;42.60;;;;;;5070653;28;20993;-69
2023/08/28 04:02:48;;;;;;;3.10;1.67;;;14.20;44.30;;;;;;5071464;28;20851;-70
2023/08/28 04:05:16;;;;;;;2.13;1.40;;;14.20;44.60;;;;;;5071826;28;20420;-70
2023/08/28 04:07:41;;;;;;;7.63;2.20;;;14.20;44.00;;;;;;5071687;28;20411;-69
2023/08/28 04:10:07;;;;;;;2.40;1.77;;;14.20;42.50;;;;;;5071685;28;20817;-70
2023/08/28 04:12:33;;;;;;;2.93;2.50;;;14.30;44.60;;;;;;5070107;28;20468;-69
2023/08/28 04:14:59;;;;;;;9.00;1.80;;;14.30;42.60;;;;;;5071584;28;20418;-69
2023/08/28 04:17:25;;;;;;;2.80;2.20;;;14.30;42.70;;;;;;5071607;28;20408;-69
2023/08/28 04:19:52;;;;;;;3.50;2.60;;;14.30;42.50;;;;;;5071489;28;20261;-69
2023/08/28 04:22:19;;;;;;;2.70;2.20;;;14.30;41.80;;;;;;5071334;28;20443;-69
2023/08/28 04:24:45;;;;;;;2.37;1.63;;;14.30;42.30;;;;;;5071627;28;20805;-69
2023/08/28 04:27:12;;;;;;;5.47;1.90;;;14.30;42.90;;;;;;5071566;28;20758;-69
2023/08/28 04:29:37;;;;;;;2.73;1.40;;;14.30;43.90;;;;;;5071649;28;20446;-69
2023/08/28 04:32:03;;;;;;;2.23;1.43;;;14.30;43.80;;;;;;5071006;28;20459;-69
2023/08/28 04:34:29;;;;;;;2.60;2.00;;;14.30;42.70;;;;;;5071386;28;20664;-69
2023/08/28 04:36:54;;;;;;;4.13;2.60;;;14.30;42.70;;;;;;5071325;28;20639;-69
2023/08/28 04:39:22;;;;;;;2.97;2.23;;;14.30;43.30;;;;;;5071476;28;20236;-69
2023/08/28 04:41:48;;;;;;;2.50;1.90;;;14.30;43.10;;;;;;5071045;28;20182;-69
2023/08/28 04:44:14;;;;;;;2.80;1.90;;;14.20;42.90;;;;;;5073967;28;20506;-69
2023/08/28 04:46:39;;;;;;;2.90;1.90;;;14.20;43.60;;;;;;5075292;28;20439;-69
2023/08/28 04:49:05;;;;;;;2.43;1.70;;;14.20;43.30;;;;;;5075092;28;20544;-69
2023/08/28 04:51:33;;;;;;;6.03;2.10;;;14.20;43.20;;;;;;5074544;28;20250;-70
2023/08/28 04:53:59;;;;;;;2.70;2.00;;;14.20;43.00;;;;;;5073729;28;20533;-70
2023/08/28 04:56:24;;;;;;;2.90;2.50;;;14.20;43.30;;;;;;5074974;28;20406;-70
2023/08/28 04:58:50;;;;;;;3.33;2.07;;;14.30;42.50;;;;;;5074975;28;20181;-70
2023/08/28 05:01:15;;;;;;;2.67;1.93;;;14.30;41.60;;;;;;5074836;28;20212;-70
2023/08/28 05:03:41;;;;;;;3.47;2.10;;;14.30;41.80;;;;;;5074682;28;20173;-69
2023/08/28 05:06:07;;;;;;;4.50;3.03;;;14.30;42.00;;;;;;5074887;28;20188;-69
2023/08/28 05:08:32;;;;;;;3.00;2.13;;;14.30;40.80;;;;;;5074694;28;20231;-69
2023/08/28 05:10:58;;;;;;;3.23;2.30;;;14.30;41.60;;;;;;5074587;28;20280;-69
2023/08/28 05:13:23;;;;;;;4.10;3.17;;;14.30;41.20;;;;;;5074236;28;20212;-69
2023/08/28 05:15:49;;;;;;;4.10;2.50;;;14.40;42.40;;;;;;5074554;28;20216;-70
2023/08/28 05:18:14;;;;;;;3.70;3.00;;;14.40;42.00;;;;;;5074722;28;20170;-70
2023/08/28 05:20:41;;;;;;;7.23;3.90;;;14.40;43.10;;;;;;5074499;28;20198;-70
2023/08/28 05:23:06;;;;;;;4.63;3.53;;;14.50;43.30;;;;;;5074264;28;20174;-70
2023/08/28 05:25:32;;;;;;;5.00;3.30;;;14.50;41.80;;;;;;5074488;28;20413;-70
2023/08/28 05:27:57;;;;;;;4.87;2.40;;;14.50;41.10;;;;;;5074506;28;20240;-70
2023/08/28 05:30:23;;;;;;;4.10;2.73;;;14.60;43.70;;;;;;5074552;28;20205;-70
2023/08/28 05:32:49;;;;;;;3.50;2.70;;;14.50;43.10;;;;;;5074506;28;20205;-70
2023/08/28 05:35:14;;;;;;;5.03;2.90;;;14.50;43.10;;;;;;5074216;28;20182;-70
2023/08/28 05:37:40;;;;;;;4.30;3.03;;;14.50;44.20;;;;;;5074270;28;20661;-70
2023/08/28 05:40:06;;;;;;;5.07;2.93;;;14.60;43.80;;;;;;5074126;28;20182;-70
2023/08/28 05:42:32;;;;;;;3.13;2.50;;;14.60;43.60;;;;;;5073869;28;20189;-70
2023/08/28 05:44:57;;;;;;;3.53;3.20;;;14.70;41.90;;;;;;5072688;28;20424;-69
2023/08/28 05:47:23;;;;;;;6.77;2.87;;;14.80;40.50;;;;;;5073966;28;20170;-70
2023/08/28 05:49:49;;;;;;;3.20;2.20;;;14.70;39.70;;;;;;5073881;28;20181;-70
2023/08/28 05:52:14;;;;;;;3.77;2.10;;;14.80;40.40;;;;;;5073375;28;20214;-70
2023/08/28 05:54:40;;;;;;;3.90;2.60;;;14.80;39.90;;;;;;5072100;28;20179;-69
2023/08/28 05:57:05;;;;;;;4.57;2.50;;;14.80;40.50;;;;;;5074263;28;20204;-69
2023/08/28 05:59:31;;;;;;;3.20;2.63;;;14.80;40.40;;;;;;5073804;28;20178;-69
2023/08/28 06:01:57;;;;;;;2.50;2.13;;;14.80;39.90;;;;;;5073430;28;20673;-70
2023/08/28 06:04:23;;;;;;;4.40;3.00;;;14.90;40.00;;;;;;5072227;28;20612;-69
2023/08/28 06:06:48;;;;;;;7.70;2.67;;;14.90;39.20;;;;;;5073578;28;20408;-69
2023/08/28 06:09:14;;;;;;;3.33;2.40;;;15.00;39.10;;;;;;5073566;28;20185;-69
2023/08/28 06:11:41;;;;;;;4.13;3.13;;;15.00;39.30;;;;;;5072987;28;20194;-69
2023/08/28 06:14:07;;;;;;;2.60;1.57;;;15.00;38.20;;;;;;5073380;28;20170;-69
2023/08/28 06:16:33;;;;;;;3.00;2.60;;;15.10;39.10;;;;;;5072164;28;20424;-69
2023/08/28 06:18:59;;;;;;;4.70;2.50;;;15.30;38.40;;;;;;5073332;28;20420;-69
2023/08/28 06:21:24;;;;;;;3.13;2.33;;;15.50;35.80;;;;;;5073039;28;20975;-69
2023/08/28 06:23:50;;;;;;;4.10;3.47;;;15.60;32.80;;;;;;5073138;28;20700;-69
2023/08/28 06:26:15;;;;;;;10.50;3.47;;;15.50;32.00;;;;;;5073172;28;20185;-70
2023/08/28 06:28:41;;;;;;;3.97;2.67;;;15.50;32.40;;;;;;5073147;28;20253;-69
2023/08/28 06:31:07;;;;;;;8.63;2.90;;;15.60;32.80;;;;;;5072967;28;20694;-69
2023/08/28 06:33:32;;;;;;;3.97;2.70;;;15.70;33.20;;;;;;5072504;28;20197;-69
2023/08/28 06:35:58;;;;;;;4.03;3.23;;;15.60;30.60;;;;;;5072799;28;20635;-70
2023/08/28 06:38:23;;;;;;;4.80;3.47;;;15.70;32.30;;;;;;5072956;28;20235;-69
2023/08/28 06:40:52;;;;;;;5.33;3.50;;;15.70;31.20;;;;;;5072908;28;20197;-69
2023/08/28 06:43:18;;;;;;;4.67;4.03;;;15.80;30.80;;;;;;5071223;28;20539;-70
2023/08/28 06:45:45;;;;;;;4.50;3.90;;;15.70;28.70;;;;;;5072851;28;20426;-70
2023/08/28 06:48:11;;;;;;;4.50;3.60;;;15.60;29.30;;;;;;5072659;28;20418;-69
2023/08/28 06:50:36;;;;;;;6.40;4.83;;;15.60;30.00;;;;;;5071081;28;20538;-70
2023/08/28 06:53:02;;;;;;;6.03;3.97;;;15.60;30.60;;;;;;5072152;28;20463;-70
2023/08/28 06:55:28;;;;;;;6.30;4.13;;;15.50;29.30;;;;;;5072650;28;20653;-68
2023/08/28 06:57:56;;;;;;;7.20;4.23;;;15.40;29.60;;;;;;5072688;28;20582;-69
2023/08/28 07:00:22;;;;;;;6.50;4.30;;;15.30;31.30;;;;;;5072411;28;20197;-69
2023/08/28 07:02:53;;;;;;;15.40;4.77;;;15.20;33.30;;;;;;5072275;28;20510;-69
2023/08/28 07:05:18;;;;;;;6.27;3.53;;;15.20;33.50;;;;;;5071924;28;20174;-69
2023/08/28 07:07:44;;;;;;;7.50;4.50;;;15.20;35.00;;;;;;5072025;28;20468;-68
2023/08/28 07:10:10;;;;;;;9.13;4.63;;;15.10;35.50;;;;;;5071966;28;20204;-69
2023/08/28 07:12:35;;;;;;;6.67;4.80;;;15.20;35.60;;;;;;5072146;28;20198;-70
2023/08/28 07:15:10;;;;;;;6.87;3.70;;;15.20;35.60;;;;;;5070919;28;20525;-70
2023/08/28 07:17:35;;;;;;;6.00;4.97;;;15.00;34.80;;;;;;5070671;28;20203;-69
2023/08/28 07:20:02;;;;;;;10.20;6.07;;;15.10;35.40;;;;;;5072140;28;20419;-68
2023/08/28 07:22:27;;;;;;;7.90;4.90;;;15.10;35.50;;;;;;5071846;28;20169;-70
2023/08/28 07:24:56;;;;;;;6.53;5.67;;;15.10;35.50;;;;;;5072071;28;20550;-69
2023/08/28 07:27:21;;;;;;;5.60;4.90;;;15.10;35.60;;;;;;5074204;28;20257;-71
2023/08/28 07:29:47;;;;;;;6.97;4.30;;;14.90;36.00;;;;;;5076233;28;20455;-71
2023/08/28 07:32:12;;;;;;;6.50;5.17;;;14.80;36.60;;;;;;5077189;28;20243;-71
2023/08/28 07:34:38;;;;;;;7.43;5.57;;;14.90;38.30;;;;;;5077237;28;20212;-71
2023/08/28 07:37:04;;;;;;;7.37;4.37;;;14.90;38.00;;;;;;5075549;28;20226;-72
2023/08/28 07:39:30;;;;;;;6.07;5.43;;;15.10;38.30;;;;;;5077572;28;20224;-71
2023/08/28 07:41:57;;;;;;;6.43;4.93;;;15.10;36.70;;;;;;5076829;28;20701;-72
2023/08/28 07:44:22;;;;;;;7.30;5.47;;;15.20;36.50;;;;;;5077401;28;20896;-72
2023/08/28 07:46:48;;;;;;;7.73;5.43;;;15.20;35.60;;;;;;5076796;28;20416;-71
2023/08/28 07:49:13;;;;;;;8.23;5.00;;;15.20;35.10;;;;;;5077192;28;20173;-71
2023/08/28 07:51:39;;;;;;;5.90;5.00;;;15.30;35.60;;;;;;5073454;28;20206;-70
2023/08/28 07:54:04;;;;;;;6.30;5.20;;;15.30;35.10;;;;;;5071726;28;20201;-69
2023/08/28 07:56:30;;;;;;;8.33;6.30;;;15.30;33.10;;;;;;5071803;28;20624;-70
2023/08/28 07:58:56;;;;;;;6.77;5.13;;;15.30;33.20;;;;;;5071679;28;20170;-70
2023/08/28 08:01:22;;;;;;;5.90;5.20;;;15.40;32.30;;;;;;5071577;28;20705;-71
2023/08/28 08:03:48;;;;;;;5.90;5.07;;;15.40;32.60;;;;;;5071574;28;20443;-70
2023/08/28 08:06:13;;;;;;;9.33;5.03;;;15.30;34.80;;;;;;5071681;28;20533;-70
2023/08/28 08:08:39;;;;;;;15.53;6.60;;;15.30;34.60;;;;;;5071565;28;20177;-68
2023/08/28 08:11:04;;;;;;;5.73;4.73;;;15.30;34.70;;;;;;5071421;28;20277;-68
2023/08/28 08:13:30;;;;;;;9.60;6.03;;;15.40;35.80;;;;;;5070845;28;20201;-68
2023/08/28 08:15:56;;;;;;;5.97;5.37;;;15.60;34.80;;;;;;5071558;28;20173;-68
2023/08/28 08:18:21;;;;;;;6.33;4.80;;;15.70;32.80;;;;;;5074178;28;20196;-68
2023/08/28 08:20:47;;;;;;;9.10;4.67;;;15.90;30.90;;;;;;5075396;28;20224;-68
2023/08/28 08:23:13;;;;;;;7.40;4.23;;;15.80;29.50;;;;;;5075178;28;20288;-68
2023/08/28 08:25:38;;;;;;;6.10;4.57;;;16.00;29.00;;;;;;5075422;28;20813;-69
2023/08/28 08:28:04;;;;;;;6.37;4.70;;;15.90;28.70;;;;;;5075338;28;20632;-68
2023/08/28 08:30:30;;;;;;;5.37;4.87;;;16.10;26.70;;;;;;5075259;28;20277;-68
2023/08/28 08:32:56;;;;;;;5.17;4.67;;;16.30;26.10;;;;;;5074963;28;20482;-69
2023/08/28 08:35:21;;;;;;;6.63;5.90;;;16.30;25.90;;;;;;5075457;28;20196;-68
2023/08/28 08:37:52;;;;;;;11.00;5.57;;;16.20;26.50;;;;;;5075157;28;20170;-69
2023/08/28 08:40:22;;;;;;;5.30;4.50;;;16.20;26.20;;;;;;5075554;28;20186;-69
2023/08/28 08:42:48;;;;;;;5.80;4.70;;;16.30;25.40;;;;;;5074884;28;20404;-69
2023/08/28 08:45:14;;;;;;;8.53;4.87;;;16.20;24.40;;;;;;5074967;28;20473;-69
2023/08/28 08:47:40;;;;;;;4.77;4.13;;;16.10;25.30;;;;;;5075069;28;20264;-69
2023/08/28 08:50:08;;;;;;;12.60;5.77;;;16.10;26.20;;;;;;5073394;28;20424;-69
2023/08/28 08:52:38;;;;;;;8.50;4.70;;;16.10;27.80;;;;;;5074684;28;20455;-69
2023/08/28 08:55:11;;;;;;;5.87;4.53;;;16.20;27.20;;;;;;5074767;28;20517;-70
2023/08/28 09:00:26;;;;;;;5.90;4.70;;;16.30;26.90;;;;;;5070636;28;20444;-68
2023/08/28 09:02:52;;;;;;;7.87;4.73;;;16.30;25.80;;;;;;5074585;28;20917;-70
2023/08/28 09:05:19;;;;;;;5.20;4.30;;;16.20;24.00;;;;;;5074771;28;20170;-69
2023/08/28 09:07:46;;;;;;;5.70;3.90;;;16.20;25.30;;;;;;5074551;28;20442;-69
2023/08/28 09:10:14;;;;;;;6.50;4.13;;;16.30;24.90;;;;;;5074568;28;20431;-69
2023/08/28 09:12:41;;;;;;;4.50;3.90;;;16.20;25.00;;;;;;5074151;28;20824;-69
2023/08/28 09:15:07;;;;;;;6.00;4.10;;;16.30;24.70;;;;;;5074501;28;20782;-69
2023/08/28 09:17:40;;;;;;;5.40;4.40;;;16.50;25.80;;;;;;5074496;28;20940;-68
2023/08/28 09:20:21;;;;;;;5.70;5.17;;;16.70;25.00;;;;;;5074376;28;20449;-69
2023/08/28 09:22:48;;;;;;;6.70;4.23;;;16.80;22.90;;;;;;5074154;28;20423;-69
2023/08/28 09:25:16;;;;;;;5.27;3.67;;;16.90;21.10;;;;;;5074296;28;20423;-69
2023/08/28 09:27:43;;;;;;;5.63;4.10;;;17.10;19.30;;;;;;5074330;28;20423;-69
2023/08/28 09:30:10;;;;;;;6.23;4.40;;;17.00;18.90;;;;;;5071947;28;20879;-69
2023/08/28 09:32:43;;;;;;;4.33;3.87;;;17.10;18.90;;;;;;5073836;28;20448;-69
2023/08/28 09:35:09;;;;;;;5.00;3.50;;;17.00;19.30;;;;;;5074206;28;20444;-69
2023/08/28 09:37:34;;;;;;;7.70;4.50;;;17.00;17.60;;;;;;5074154;28;20444;-70
2023/08/28 09:40:00;;;;;;;4.87;3.77;;;17.10;18.70;;;;;;5074863;28;20880;-69
2023/08/28 09:42:26;;;;;;;5.67;2.93;;;17.30;15.80;;;;;;5074374;28;20261;-69
2023/08/28 09:44:52;;;;;;;4.43;3.77;;;17.70;13.80;;;;;;5074079;28;20515;-68
2023/08/28 09:47:21;;;;;;;5.30;3.40;;;17.90;11.40;;;;;;5073869;28;20201;-68
2023/08/28 09:49:48;;;;;;;4.07;3.07;;;17.90;10.70;;;;;;5073995;28;20181;-69
2023/08/28 09:52:14;;;;;;;3.80;3.27;;;17.90;9.00;;;;;;5073365;28;20468;-69
2023/08/28 09:54:43;;;;;;;5.50;4.07;;;17.80;10.30;;;;;;5073809;28;20804;-69
2023/08/28 09:57:15;;;;;;;6.10;4.40;;;18.00;10.70;;;;;;5073753;28;20220;-69
2023/08/28 09:59:41;;;;;;;5.10;3.27;;;18.20;9.10;;;;;;5073520;28;20423;-70
2023/08/28 10:02:10;;;;;;;2.90;2.20;;;18.20;7.70;;;;;;5073355;28;20439;-69
2023/08/28 10:04:37;;;;;;;4.30;3.30;;;18.50;7.60;;;;;;5073450;28;20492;-70
2023/08/28 10:07:04;;;;;;;3.90;3.50;;;19.10;6.10;;;;;;5073810;28;20780;-70
2023/08/28 10:09:34;;;;;;;3.60;2.93;;;19.40;4.40;;;;;;5073522;28;20412;-69
2023/08/28 10:12:01;;;;;;;8.53;3.63;;;20.00;3.50;;;;;;5073422;28;20952;-69
2023/08/28 10:14:29;;;;;;;3.23;2.93;;;19.70;2.10;;;;;;5073319;28;20454;-70
2023/08/28 10:17:03;;;;;;;4.00;2.77;;;19.70;3.60;;;;;;5073310;28;20408;-69
2023/08/28 10:19:41;;;;;;;3.30;2.80;;;19.60;2.30;;;;;;5073175;28;20412;-69
2023/08/28 10:22:08;;;;;;;5.40;2.80;;;19.20;3.20;;;;;;5073007;28;20428;-69
2023/08/28 10:24:42;;;;;;;9.20;4.80;;;18.50;4.00;;;;;;5073120;28;20408;-69
2023/08/28 10:27:08;;;;;;;4.57;3.63;;;18.20;8.60;;;;;;5073361;28;20485;-69
2023/08/28 10:29:36;;;;;;;3.20;2.40;;;18.20;6.30;;;;;;5073101;28;20412;-70
2023/08/28 10:32:09;;;;;;;5.03;3.00;;;18.40;5.10;;;;;;5072746;28;20461;-71
2023/08/28 10:34:39;;;;;;;7.40;3.90;;;18.30;5.80;;;;;;5073013;28;20432;-70
2023/08/28 10:37:07;;;;;;;3.47;3.00;;;18.10;6.30;;;;;;5072968;28;20404;-70
2023/08/28 10:39:33;;;;;;;9.40;5.43;;;17.70;5.10;;;;;;5073022;28;20759;-69
2023/08/28 10:42:00;;;;;;;4.30;2.73;;;17.40;7.80;;;;;;5072541;28;20432;-69
2023/08/28 10:44:27;;;;;;;10.03;5.30;;;17.60;8.10;;;;;;5072890;28;20181;-69
2023/08/28 10:46:53;;;;;;;7.53;4.33;;;17.70;8.40;;;;;;5072707;28;20422;-70
2023/08/28 10:49:18;;;;;;;5.73;4.40;;;18.20;7.70;;;;;;5072587;28;20439;-70
2023/08/28 10:51:44;;;;;;;4.40;2.70;;;18.60;6.60;;;;;;5072104;28;20456;-70
2023/08/28 10:54:11;;;;;;;5.10;2.83;;;18.40;3.90;;;;;;5072574;28;20205;-71
2023/08/28 10:56:39;;;;;;;4.70;2.80;;;18.10;4.50;;;;;;5071305;28;20507;-70
2023/08/28 10:59:24;;;;;;;4.13;2.70;;;17.90;6.10;;;;;;5072909;28;20782;-69
2023/08/28 11:01:58;;;;;;;3.80;3.00;;;17.80;6.00;;;;;;5072186;28;20531;-69
2023/08/28 11:04:31;;;;;;;7.00;3.50;;;17.60;7.50;;;;;;5072430;28;20409;-69
2023/08/28 11:06:57;;;;;;;3.57;2.67;;;17.50;8.00;;;;;;5072487;28;20401;-70
2023/08/28 11:09:28;;;;;;;3.80;2.60;;;17.20;8.50;;;;;;5072315;28;20420;-69
2023/08/28 11:12:00;;;;;;;3.30;2.60;;;17.10;10.10;;;;;;5071902;28;20194;-69
2023/08/28 11:14:38;;;;;;;5.67;3.03;;;17.00;10.40;;;;;;5072354;28;20774;-69
2023/08/28 11:17:13;;;;;;;5.73;2.50;;;16.90;11.40;;;;;;5072307;28;20400;-70
2023/08/28 11:19:54;;;;;;;3.90;3.10;;;17.10;11.50;;;;;;5072228;28;20404;-70
2023/08/28 11:22:29;;;;;;;4.30;2.83;;;17.40;10.50;;;;;;5071840;28;20411;-69
2023/08/28 11:24:55;;;;;;;4.80;2.80;;;17.30;9.60;;;;;;5072091;28;20423;-69
2023/08/28 11:27:40;;;;;;;5.57;2.43;;;17.10;10.10;;;;;;5072007;28;20488;-70
2023/08/28 11:30:06;;;;;;;6.70;2.80;;;17.10;8.90;;;;;;5071957;28;20421;-69
2023/08/28 11:32:34;;;;;;;4.30;2.33;;;17.10;10.10;;;;;;5070342;28;20463;-70
2023/08/28 11:35:01;;;;;;;3.70;2.33;;;17.30;10.30;;;;;;5070496;28;20481;-70
2023/08/28 11:37:35;;;;;;;3.10;2.10;;;17.30;7.80;;;;;;5071813;28;20419;-69
2023/08/28 11:40:05;;;;;;;3.67;2.20;;;17.40;7.30;;;;;;5072165;28;20722;-69
2023/08/28 11:42:31;;;;;;;4.03;3.07;;;17.10;7.10;;;;;;5071710;28;20411;-69
2023/08/28 11:44:56;;;;;;;5.90;2.10;;;17.00;8.80;;;;;;5071796;28;20412;-70
2023/08/28 11:47:29;;;;;;;6.27;2.73;;;16.80;8.90;;;;;;5071709;28;20177;-70
2023/08/28 11:49:55;;;;;;;6.30;2.30;;;16.70;10.20;;;;;;5071666;28;20177;-69
2023/08/28 11:52:22;;;;;;;3.23;2.13;;;16.70;11.10;;;;;;5071045;28;20826;-69
2023/08/28 11:54:48;;;;;;;5.80;3.43;;;16.60;11.90;;;;;;5071733;28;20487;-70
2023/08/28 11:57:16;;;;;;;5.07;3.53;;;16.30;15.70;;;;;;5071930;28;20961;-69
2023/08/28 11:59:44;;;;;;;6.10;3.53;;;15.90;20.60;;;;;;5070431;28;20424;-69
2023/08/28 12:02:13;;;;;;;7.17;4.17;;;15.60;23.40;;;;;;5071379;28;20439;-69
2023/08/28 12:04:40;;;;;;;5.80;5.10;;;15.40;26.30;;;;;;5071640;28;20491;-70
2023/08/28 12:07:16;;;;;;;4.73;3.57;;;15.20;28.40;;;;;;5071622;28;20412;-70
2023/08/28 12:09:42;;;;;;;4.13;3.50;;;15.10;33.30;;;;;;5071726;28;20416;-69
2023/08/28 12:12:08;;;;;;;5.40;3.27;;;15.20;33.20;;;;;;5071335;28;20434;-69
2023/08/28 12:14:33;;;;;;;3.90;3.50;;;15.40;30.50;;;;;;5072118;28;20750;-69
2023/08/28 12:17:00;;;;;;;7.33;4.27;;;15.50;28.00;;;;;;5071489;28;20187;-69
2023/08/28 12:19:26;;;;;;;4.87;3.80;;;15.70;29.70;;;;;;5071505;28;20227;-70
2023/08/28 12:21:51;;;;;;;3.87;3.40;;;16.00;28.50;;;;;;5071267;28;20953;-70
2023/08/28 12:24:17;;;;;;;3.57;3.20;;;16.20;27.80;;;;;;5071339;28;20200;-70
2023/08/28 12:26:43;;;;;;;3.80;3.30;;;16.40;26.90;;;;;;5071519;28;20686;-70
2023/08/28 12:29:09;;;;;;;4.27;2.87;;;16.50;26.20;;;;;;5071939;28;20574;-71
2023/08/28 12:31:36;;;;;;;4.13;2.97;;;16.50;22.20;;;;;;5071086;28;20437;-70
2023/08/28 12:34:09;;;;;;;4.80;3.20;;;16.40;22.50;;;;;;5071270;28;20806;-69
2023/08/28 12:36:48;;;;;;;5.43;2.80;;;16.20;21.40;;;;;;5071299;28;20416;-69
2023/08/28 12:39:20;;;;;;;5.37;3.07;;;16.20;21.20;;;;;;5071279;28;20400;-69
2023/08/28 12:41:51;;;;;;;5.37;3.03;;;16.30;20.60;;;;;;5070697;28;20428;-69
2023/08/28 12:44:16;;;;;;;3.50;2.80;;;16.30;20.10;;;;;;5069837;28;20416;-70
2023/08/28 12:46:42;;;;;;;5.27;4.00;;;16.30;21.50;;;;;;5071211;28;20415;-69
2023/08/28 12:49:09;;;;;;;6.83;3.50;;;16.00;22.20;;;;;;5071234;28;20252;-70
2023/08/28 12:51:35;;;;;;;5.20;2.33;;;15.90;24.30;;;;;;5070902;28;20217;-69